Aviation Digital Data Service (ADDS)

Output produced by METARs form (1319 UTC 19 January 2019)
found at http://www.aviationweather.gov/metar/data/
 
METAR text: UKLI 191300Z 15002MPS CAVOK 01/M06 Q1021 R28/820335 NOSIG
Conditions at: UKLI (IVANO-FRANKIVSK , UA) observed 1300 UTC 19 January 2019
Temperature: 1.0°C (34°F)
Dewpoint: -6.0°C (21°F) [RH = 59%]
Pressure (altimeter): 30.15 inches Hg (1021.0 mb)
Winds: from the SSE (150 degrees) at 5 MPH (4 knots; 2.1 m/s)
Visibility: 6 or more miles (10+ km)
Ceiling: ceiling and visibility are OK
Clouds: unknown
Weather: no significant weather observed at this time

METAR text: UKLI 191230Z 16003MPS CAVOK 00/M05 Q1022 R28/820335 NOSIG
Conditions at: UKLI (IVANO-FRANKIVSK , UA) observed 1230 UTC 19 January 2019
Temperature: 0.0°C (32°F)
Dewpoint: -5.0°C (23°F) [RH = 69%]
Pressure (altimeter): 30.18 inches Hg (1022.0 mb)
Winds: from the SSE (160 degrees) at 7 MPH (6 knots; 3.1 m/s)
Visibility: 6 or more miles (10+ km)
Ceiling: ceiling and visibility are OK
Clouds: unknown
Weather: no significant weather observed at this time

METAR text: UKLI 191200Z 17002MPS 130V200 CAVOK 01/M07 Q1022 R28/450335 NOSIG
Conditions at: UKLI (IVANO-FRANKIVSK , UA) observed 1200 UTC 19 January 2019
Temperature: 1.0°C (34°F)
Dewpoint: -7.0°C (19°F) [RH = 55%]
Pressure (altimeter): 30.18 inches Hg (1022.0 mb)
Winds: from the S (170 degrees) at 5 MPH (4 knots; 2.1 m/s)
Visibility: 6 or more miles (10+ km)
Ceiling: ceiling and visibility are OK
Clouds: unknown
Weather: no significant weather observed at this time

METAR text: UKLI 191130Z 00000MPS CAVOK 03/M07 Q1022 R28/450335 NOSIG
Conditions at: UKLI (IVANO-FRANKIVSK , UA) observed 1130 UTC 19 January 2019
Temperature: 3.0°C (37°F)
Dewpoint: -7.0°C (19°F) [RH = 48%]
Pressure (altimeter): 30.18 inches Hg (1022.0 mb)
Winds: calm
Visibility: 6 or more miles (10+ km)
Ceiling: ceiling and visibility are OK
Clouds: unknown
Weather: no significant weather observed at this time

METAR text: UKLI 191100Z 00000MPS CAVOK 02/M07 Q1022 R28/450335 NOSIG
Conditions at: UKLI (IVANO-FRANKIVSK , UA) observed 1100 UTC 19 January 2019
Temperature: 2.0°C (36°F)
Dewpoint: -7.0°C (19°F) [RH = 51%]
Pressure (altimeter): 30.18 inches Hg (1022.0 mb)
Winds: calm
Visibility: 6 or more miles (10+ km)
Ceiling: ceiling and visibility are OK
Clouds: unknown
Weather: no significant weather observed at this time

METAR text: UKLI 191030Z 00000MPS CAVOK 01/M06 Q1022 R28/450335 NOSIG
Conditions at: UKLI (IVANO-FRANKIVSK , UA) observed 1030 UTC 19 January 2019
Temperature: 1.0°C (34°F)
Dewpoint: -6.0°C (21°F) [RH = 59%]
Pressure (altimeter): 30.18 inches Hg (1022.0 mb)
Winds: calm
Visibility: 6 or more miles (10+ km)
Ceiling: ceiling and visibility are OK
Clouds: unknown
Weather: no significant weather observed at this time

METAR text: UKLI 191000Z 23002MPS CAVOK 00/M04 Q1022 R28/450335 NOSIG
Conditions at: UKLI (IVANO-FRANKIVSK , UA) observed 1000 UTC 19 January 2019
Temperature: 0.0°C (32°F)
Dewpoint: -4.0°C (25°F) [RH = 74%]
Pressure (altimeter): 30.18 inches Hg (1022.0 mb)
Winds: from the SW (230 degrees) at 5 MPH (4 knots; 2.1 m/s)
Visibility: 6 or more miles (10+ km)
Ceiling: ceiling and visibility are OK
Clouds: unknown
Weather: no significant weather observed at this time

METAR text: UKLI 190930Z 22002MPS CAVOK 00/M04 Q1023 R28/450530 NOSIG
Conditions at: UKLI (IVANO-FRANKIVSK , UA) observed 0930 UTC 19 January 2019
Temperature: 0.0°C (32°F)
Dewpoint: -4.0°C (25°F) [RH = 74%]
Pressure (altimeter): 30.21 inches Hg (1023.0 mb)
Winds: from the SW (220 degrees) at 5 MPH (4 knots; 2.1 m/s)
Visibility: 6 or more miles (10+ km)
Ceiling: ceiling and visibility are OK
Clouds: unknown
Weather: no significant weather observed at this time

METAR text: UKLI 190900Z 00000MPS CAVOK M01/M04 Q1022 R10/450530 NOSIG
Conditions at: UKLI (IVANO-FRANKIVSK , UA) observed 0900 UTC 19 January 2019
Temperature: -1.0°C (30°F)
Dewpoint: -4.0°C (25°F) [RH = 80%]
Pressure (altimeter): 30.18 inches Hg (1022.0 mb)
Winds: calm
Visibility: 6 or more miles (10+ km)
Ceiling: ceiling and visibility are OK
Clouds: unknown
Weather: no significant weather observed at this time

METAR text: UKLI 190830Z 23001MPS CAVOK M02/M05 Q1022 R10/450530 NOSIG
Conditions at: UKLI (IVANO-FRANKIVSK , UA) observed 0830 UTC 19 January 2019
Temperature: -2.0°C (28°F)
Dewpoint: -5.0°C (23°F) [RH = 80%]
Pressure (altimeter): 30.18 inches Hg (1022.0 mb)
Winds: from the SW (230 degrees) at 2 MPH (2 knots; 1.0 m/s)
Visibility: 6 or more miles (10+ km)
Ceiling: ceiling and visibility are OK
Clouds: unknown
Weather: no significant weather observed at this time

METAR text: UKLI 190800Z 24002MPS CAVOK M03/M04 Q1022 R10/450530 NOSIG
Conditions at: UKLI (IVANO-FRANKIVSK , UA) observed 0800 UTC 19 January 2019
Temperature: -3.0°C (27°F)
Dewpoint: -4.0°C (25°F) [RH = 93%]
Pressure (altimeter): 30.18 inches Hg (1022.0 mb)
Winds: from the WSW (240 degrees) at 5 MPH (4 knots; 2.1 m/s)
Visibility: 6 or more miles (10+ km)
Ceiling: ceiling and visibility are OK
Clouds: unknown
Weather: no significant weather observed at this time

METAR text: UKLI 190730Z 00000MPS CAVOK M04/M05 Q1022 R10/450530 NOSIG
Conditions at: UKLI (IVANO-FRANKIVSK , UA) observed 0730 UTC 19 January 2019
Temperature: -4.0°C (25°F)
Dewpoint: -5.0°C (23°F) [RH = 93%]
Pressure (altimeter): 30.18 inches Hg (1022.0 mb)
Winds: calm
Visibility: 6 or more miles (10+ km)
Ceiling: ceiling and visibility are OK
Clouds: unknown
Weather: no significant weather observed at this time

METAR text: UKLI 190700Z 25002MPS CAVOK M06/M06 Q1021 R10/450530 NOSIG
Conditions at: UKLI (IVANO-FRANKIVSK , UA) observed 0700 UTC 19 January 2019
Temperature: -6.0°C (21°F)
Dewpoint: -6.0°C (21°F) [RH = 100%]
Pressure (altimeter): 30.15 inches Hg (1021.0 mb)
Winds: from the WSW (250 degrees) at 5 MPH (4 knots; 2.1 m/s)
Visibility: 6 or more miles (10+ km)
Ceiling: ceiling and visibility are OK
Clouds: unknown
Weather: no significant weather observed at this time

METAR text: UKLI 190630Z 26002MPS CAVOK M07/M07 Q1021 R10/450530 NOSIG
Conditions at: UKLI (IVANO-FRANKIVSK , UA) observed 0630 UTC 19 January 2019
Temperature: -7.0°C (19°F)
Dewpoint: -7.0°C (19°F) [RH = 100%]
Pressure (altimeter): 30.15 inches Hg (1021.0 mb)
Winds: from the W (260 degrees) at 5 MPH (4 knots; 2.1 m/s)
Visibility: 6 or more miles (10+ km)
Ceiling: ceiling and visibility are OK
Clouds: unknown
Weather: no significant weather observed at this time

METAR text: UKLI 190600Z 25002MPS CAVOK M06/M06 Q1021 R10/450530 NOSIG
Conditions at: UKLI (IVANO-FRANKIVSK , UA) observed 0600 UTC 19 January 2019
Temperature: -6.0°C (21°F)
Dewpoint: -6.0°C (21°F) [RH = 100%]
Pressure (altimeter): 30.15 inches Hg (1021.0 mb)
Winds: from the WSW (250 degrees) at 5 MPH (4 knots; 2.1 m/s)
Visibility: 6 or more miles (10+ km)
Ceiling: ceiling and visibility are OK
Clouds: unknown
Weather: no significant weather observed at this time

METAR text: UKLI 190530Z 20001MPS CAVOK M06/M06 Q1021 R10/450530 NOSIG
Conditions at: UKLI (IVANO-FRANKIVSK , UA) observed 0530 UTC 19 January 2019
Temperature: -6.0°C (21°F)
Dewpoint: -6.0°C (21°F) [RH = 100%]
Pressure (altimeter): 30.15 inches Hg (1021.0 mb)
Winds: from the SSW (200 degrees) at 2 MPH (2 knots; 1.0 m/s)
Visibility: 6 or more miles (10+ km)
Ceiling: ceiling and visibility are OK
Clouds: unknown
Weather: no significant weather observed at this time

METAR text: UKLI 190500Z 00000MPS CAVOK M04/M05 Q1021 R10/450530 NOSIG
Conditions at: UKLI (IVANO-FRANKIVSK , UA) observed 0500 UTC 19 January 2019
Temperature: -4.0°C (25°F)
Dewpoint: -5.0°C (23°F) [RH = 93%]
Pressure (altimeter): 30.15 inches Hg (1021.0 mb)
Winds: calm
Visibility: 6 or more miles (10+ km)
Ceiling: ceiling and visibility are OK
Clouds: unknown
Weather: no significant weather observed at this time

METAR text: UKLI 190430Z 30002MPS CAVOK M04/M05 Q1021 R28/450530 NOSIG
Conditions at: UKLI (IVANO-FRANKIVSK , UA) observed 0430 UTC 19 January 2019
Temperature: -4.0°C (25°F)
Dewpoint: -5.0°C (23°F) [RH = 93%]
Pressure (altimeter): 30.15 inches Hg (1021.0 mb)
Winds: from the WNW (300 degrees) at 5 MPH (4 knots; 2.1 m/s)
Visibility: 6 or more miles (10+ km)
Ceiling: ceiling and visibility are OK
Clouds: unknown
Weather: no significant weather observed at this time

METAR text: UKLI 190400Z 31002MPS 280V340 9999 SCT040 M03/M04 Q1020 NOSIG
Conditions at: UKLI (IVANO-FRANKIVSK , UA) observed 0400 UTC 19 January 2019
Temperature: -3.0°C (27°F)
Dewpoint: -4.0°C (25°F) [RH = 93%]
Pressure (altimeter): 30.12 inches Hg (1020.0 mb)
Winds: from the NW (310 degrees) at 5 MPH (4 knots; 2.1 m/s)
Visibility: 6 or more miles (10+ km)
Ceiling: at least 12,000 feet AGL
Clouds: scattered clouds at 4000 feet AGL
Weather: no significant weather observed at this time

METAR text: UKLI 190330Z 30003MPS 260V360 9999 BKN030 M03/M03 Q1020 NOSIG
Conditions at: UKLI (IVANO-FRANKIVSK , UA) observed 0330 UTC 19 January 2019
Temperature: -3.0°C (27°F)
Dewpoint: -3.0°C (27°F) [RH = 100%]
Pressure (altimeter): 30.12 inches Hg (1020.0 mb)
Winds: from the WNW (300 degrees) at 7 MPH (6 knots; 3.1 m/s)
Visibility: 6 or more miles (10+ km)
Ceiling: 3000 feet AGL
Clouds: broken clouds at 3000 feet AGL
Weather: no significant weather observed at this time

METAR text: UKLI 190300Z 30003MPS 260V330 9999 BKN033 M02/M02 Q1020 NOSIG
Conditions at: UKLI (IVANO-FRANKIVSK , UA) observed 0300 UTC 19 January 2019
Temperature: -2.0°C (28°F)
Dewpoint: -2.0°C (28°F) [RH = 100%]
Pressure (altimeter): 30.12 inches Hg (1020.0 mb)
Winds: from the WNW (300 degrees) at 7 MPH (6 knots; 3.1 m/s)
Visibility: 6 or more miles (10+ km)
Ceiling: 3300 feet AGL
Clouds: broken clouds at 3300 feet AGL
Weather: no significant weather observed at this time

METAR text: UKLI 182100Z 29003MPS 9999 -SHSN SCT013CB BKN020 M00/M00 Q1017 R28/590530 NOSIG
Conditions at: UKLI (IVANO-FRANKIVSK , UA) observed 2100 UTC 18 January 2019
Temperature: 0.0°C (32°F)
Dewpoint: 0.0°C (32°F) [RH = 100%]
Pressure (altimeter): 30.03 inches Hg (1017.0 mb)
Winds: from the WNW (290 degrees) at 7 MPH (6 knots; 3.1 m/s)
Visibility: 6 or more miles (10+ km)
Ceiling: 2000 feet AGL
Clouds: scattered clouds at 1300 feet AGL
broken clouds at 2000 feet AGL
Weather: -SHSN  (light snow showers)

METAR text: UKLI 182030Z 28003MPS 3600 -SHSN BKN009 BKN016CB M00/M00 Q1016 R28/590530 NOSIG
Conditions at: UKLI (IVANO-FRANKIVSK , UA) observed 2030 UTC 18 January 2019
Temperature: 0.0°C (32°F)
Dewpoint: 0.0°C (32°F) [RH = 100%]
Pressure (altimeter): 30.00 inches Hg (1016.0 mb)
Winds: from the W (280 degrees) at 7 MPH (6 knots; 3.1 m/s)
Visibility: 2.24 miles (3.60 km)
Ceiling: 900 feet AGL
Clouds: broken clouds at 900 feet AGL
broken clouds at 1600 feet AGL
Weather: -SHSN  (light snow showers)

METAR text: UKLI 182000Z 26003MPS 6000 -SHSN BKN009 BKN016CB M00/M00 Q1016 R28/590530 NOSIG
Conditions at: UKLI (IVANO-FRANKIVSK , UA) observed 2000 UTC 18 January 2019
Temperature: 0.0°C (32°F)
Dewpoint: 0.0°C (32°F) [RH = 100%]
Pressure (altimeter): 30.00 inches Hg (1016.0 mb)
Winds: from the W (260 degrees) at 7 MPH (6 knots; 3.1 m/s)
Visibility: 4 miles ( 6 km)
Ceiling: 900 feet AGL
Clouds: broken clouds at 900 feet AGL
broken clouds at 1600 feet AGL
Weather: -SHSN  (light snow showers)

METAR text: UKLI 181952Z 27003MPS 4000 -SHSN BKN006 BKN014CB M00/M00 Q1016 R28/590530 NOSIG
Conditions at: UKLI (IVANO-FRANKIVSK , UA) observed 1952 UTC 18 January 2019
Temperature: 0.0°C (32°F)
Dewpoint: 0.0°C (32°F) [RH = 100%]
Pressure (altimeter): 30.00 inches Hg (1016.0 mb)
Winds: from the W (270 degrees) at 7 MPH (6 knots; 3.1 m/s)
Visibility: 2.49 miles (4.01 km)
Ceiling: 600 feet AGL
Clouds: broken clouds at 600 feet AGL
broken clouds at 1400 feet AGL
Weather: -SHSN  (light snow showers)

METAR text: UKLI 181930Z 26003MPS 2700 -FZRASN BKN006 BKN014CB M00/M00 Q1016 R28/590530 NOSIG
Conditions at: UKLI (IVANO-FRANKIVSK , UA) observed 1930 UTC 18 January 2019
Temperature: 0.0°C (32°F)
Dewpoint: 0.0°C (32°F) [RH = 100%]
Pressure (altimeter): 30.00 inches Hg (1016.0 mb)
Winds: from the W (260 degrees) at 7 MPH (6 knots; 3.1 m/s)
Visibility: 1.68 miles (2.70 km)
Ceiling: 600 feet AGL
Clouds: broken clouds at 600 feet AGL
broken clouds at 1400 feet AGL
Weather: -FZRA SN  (light freezing rain, moderate snow)

METAR text: UKLI 181902Z 27003MPS 2700 -FZRASN BKN006 BKN014CB M00/M00 Q1015 R28/590530 NOSIG
Conditions at: UKLI (IVANO-FRANKIVSK , UA) observed 1902 UTC 18 January 2019
Temperature: 0.0°C (32°F)
Dewpoint: 0.0°C (32°F) [RH = 100%]
Pressure (altimeter): 29.97 inches Hg (1015.0 mb)
Winds: from the W (270 degrees) at 7 MPH (6 knots; 3.1 m/s)
Visibility: 1.68 miles (2.70 km)
Ceiling: 600 feet AGL
Clouds: broken clouds at 600 feet AGL
broken clouds at 1400 feet AGL
Weather: -FZRA SN  (light freezing rain, moderate snow)

METAR text: UKLI 181900Z 27003MPS 3100 -FZRASN BKN006 BKN014CB M00/M00 Q1015 R28/590530 NOSIG
Conditions at: UKLI (IVANO-FRANKIVSK , UA) observed 1900 UTC 18 January 2019
Temperature: 0.0°C (32°F)
Dewpoint: 0.0°C (32°F) [RH = 100%]
Pressure (altimeter): 29.97 inches Hg (1015.0 mb)
Winds: from the W (270 degrees) at 7 MPH (6 knots; 3.1 m/s)
Visibility: 1.93 miles (3.11 km)
Ceiling: 600 feet AGL
Clouds: broken clouds at 600 feet AGL
broken clouds at 1400 feet AGL
Weather: -FZRA SN  (light freezing rain, moderate snow)

METAR text: UKLI 181849Z 27003MPS 2600 -FZRASN BKN006 BKN014CB M00/M00 Q1015 R28/590530 NOSIG
Conditions at: UKLI (IVANO-FRANKIVSK , UA) observed 1849 UTC 18 January 2019
Temperature: 0.0°C (32°F)
Dewpoint: 0.0°C (32°F) [RH = 100%]
Pressure (altimeter): 29.97 inches Hg (1015.0 mb)
Winds: from the W (270 degrees) at 7 MPH (6 knots; 3.1 m/s)
Visibility: 1.62 miles (2.61 km)
Ceiling: 600 feet AGL
Clouds: broken clouds at 600 feet AGL
broken clouds at 1400 feet AGL
Weather: -FZRA SN  (light freezing rain, moderate snow)

METAR text: UKLI 181830Z 26003MPS 4100 -FZRASN BKN006 BKN014CB M00/M00 Q1015 R28/590530 NOSIG
Conditions at: UKLI (IVANO-FRANKIVSK , UA) observed 1830 UTC 18 January 2019
Temperature: 0.0°C (32°F)
Dewpoint: 0.0°C (32°F) [RH = 100%]
Pressure (altimeter): 29.97 inches Hg (1015.0 mb)
Winds: from the W (260 degrees) at 7 MPH (6 knots; 3.1 m/s)
Visibility: 2.55 miles (4.10 km)
Ceiling: 600 feet AGL
Clouds: broken clouds at 600 feet AGL
broken clouds at 1400 feet AGL
Weather: -FZRA SN  (light freezing rain, moderate snow)

METAR text: UKLI 181824Z 27003MPS 4100 -FZRASN BKN006 BKN014CB M00/M00 Q1015 R28/590530 NOSIG
Conditions at: UKLI (IVANO-FRANKIVSK , UA) observed 1824 UTC 18 January 2019
Temperature: 0.0°C (32°F)
Dewpoint: 0.0°C (32°F) [RH = 100%]
Pressure (altimeter): 29.97 inches Hg (1015.0 mb)
Winds: from the W (270 degrees) at 7 MPH (6 knots; 3.1 m/s)
Visibility: 2.55 miles (4.10 km)
Ceiling: 600 feet AGL
Clouds: broken clouds at 600 feet AGL
broken clouds at 1400 feet AGL
Weather: -FZRA SN  (light freezing rain, moderate snow)

METAR text: UKLI 181807Z 27003MPS 1900 FZRASN BKN006 BKN014CB M00/M00 Q1015 R28/590530 NOSIG
Conditions at: UKLI (IVANO-FRANKIVSK , UA) observed 1807 UTC 18 January 2019
Temperature: 0.0°C (32°F)
Dewpoint: 0.0°C (32°F) [RH = 100%]
Pressure (altimeter): 29.97 inches Hg (1015.0 mb)
Winds: from the W (270 degrees) at 7 MPH (6 knots; 3.1 m/s)
Visibility: 1.18 miles (1.90 km)
Ceiling: 600 feet AGL
Clouds: broken clouds at 600 feet AGL
broken clouds at 1400 feet AGL
Weather: FZRA SN  (freezing rain, moderate snow)

METAR text: UKLI 181800Z 27003MPS 2300 -FZRASN BKN007 BKN015CB M00/M00 Q1015 R28/590530 NOSIG
Conditions at: UKLI (IVANO-FRANKIVSK , UA) observed 1800 UTC 18 January 2019
Temperature: 0.0°C (32°F)
Dewpoint: 0.0°C (32°F) [RH = 100%]
Pressure (altimeter): 29.97 inches Hg (1015.0 mb)
Winds: from the W (270 degrees) at 7 MPH (6 knots; 3.1 m/s)
Visibility: 1.43 miles (2.30 km)
Ceiling: 700 feet AGL
Clouds: broken clouds at 700 feet AGL
broken clouds at 1500 feet AGL
Weather: -FZRA SN  (light freezing rain, moderate snow)

METAR text: UKLI 181745Z 27003MPS 2100 -FZRASN BKN007 BKN015CB M00/M00 Q1015 R28/590530 NOSIG
Conditions at: UKLI (IVANO-FRANKIVSK , UA) observed 1745 UTC 18 January 2019
Temperature: 0.0°C (32°F)
Dewpoint: 0.0°C (32°F) [RH = 100%]
Pressure (altimeter): 29.97 inches Hg (1015.0 mb)
Winds: from the W (270 degrees) at 7 MPH (6 knots; 3.1 m/s)
Visibility: 1.30 miles (2.09 km)
Ceiling: 700 feet AGL
Clouds: broken clouds at 700 feet AGL
broken clouds at 1500 feet AGL
Weather: -FZRA SN  (light freezing rain, moderate snow)

METAR text: UKLI 181730Z 27003MPS 2300 -SHRASN BKN007 BKN015CB 00/00 Q1014 R28/590530 NOSIG
Conditions at: UKLI (IVANO-FRANKIVSK , UA) observed 1730 UTC 18 January 2019
Temperature: 0.0°C (32°F)
Dewpoint: 0.0°C (32°F) [RH = 100%]
Pressure (altimeter): 29.94 inches Hg (1014.0 mb)
Winds: from the W (270 degrees) at 7 MPH (6 knots; 3.1 m/s)
Visibility: 1.43 miles (2.30 km)
Ceiling: 700 feet AGL
Clouds: broken clouds at 700 feet AGL
broken clouds at 1500 feet AGL
Weather: -SHRA -SHSN  (light rain showers, light snow showers)

METAR text: UKLI 181700Z 29003MPS 2300 -SHRASN BKN007 BKN014CB 00/00 Q1014 R28/590530 NOSIG
Conditions at: UKLI (IVANO-FRANKIVSK , UA) observed 1700 UTC 18 January 2019
Temperature: 0.0°C (32°F)
Dewpoint: 0.0°C (32°F) [RH = 100%]
Pressure (altimeter): 29.94 inches Hg (1014.0 mb)
Winds: from the WNW (290 degrees) at 7 MPH (6 knots; 3.1 m/s)
Visibility: 1.43 miles (2.30 km)
Ceiling: 700 feet AGL
Clouds: broken clouds at 700 feet AGL
broken clouds at 1400 feet AGL
Weather: -SHRA -SHSN  (light rain showers, light snow showers)

METAR text: UKLI 181630Z 29003MPS 270V350 2200 -SHRASN BKN007 BKN014CB 00/00 Q1014 R28/590530 NOSIG
Conditions at: UKLI (IVANO-FRANKIVSK , UA) observed 1630 UTC 18 January 2019
Temperature: 0.0°C (32°F)
Dewpoint: 0.0°C (32°F) [RH = 100%]
Pressure (altimeter): 29.94 inches Hg (1014.0 mb)
Winds: from the WNW (290 degrees) at 7 MPH (6 knots; 3.1 m/s)
Visibility: 1.37 miles (2.20 km)
Ceiling: 700 feet AGL
Clouds: broken clouds at 700 feet AGL
broken clouds at 1400 feet AGL
Weather: -SHRA -SHSN  (light rain showers, light snow showers)

METAR text: UKLI 181530Z 32002MPS 270V010 1200 SHRASN BKN007 BKN014CB 01/01 Q1013 R28/190050 NOSIG
Conditions at: UKLI (IVANO-FRANKIVSK , UA) observed 1530 UTC 18 January 2019
Temperature: 1.0°C (34°F)
Dewpoint: 1.0°C (34°F) [RH = 100%]
Pressure (altimeter): 29.91 inches Hg (1013.0 mb)
Winds: from the NW (320 degrees) at 5 MPH (4 knots; 2.1 m/s)
Visibility: 0.75 miles (1.21 km)
Ceiling: 700 feet AGL
Clouds: broken clouds at 700 feet AGL
broken clouds at 1400 feet AGL
Weather: SHRA SHSN  (rain showers, snow showers)

METAR text: UKLI 181514Z 33004MPS 1400 SHRASN BKN007 BKN014CB 01/01 Q1013 R28/190050 NOSIG
Conditions at: UKLI (IVANO-FRANKIVSK , UA) observed 1514 UTC 18 January 2019
Temperature: 1.0°C (34°F)
Dewpoint: 1.0°C (34°F) [RH = 100%]
Pressure (altimeter): 29.91 inches Hg (1013.0 mb)
Winds: from the NNW (330 degrees) at 9 MPH (8 knots; 4.1 m/s)
Visibility: 0.87 miles (1.40 km)
Ceiling: 700 feet AGL
Clouds: broken clouds at 700 feet AGL
broken clouds at 1400 feet AGL
Weather: SHRA SHSN  (rain showers, snow showers)

METAR text: UKLI 181500Z 34004MPS 300V360 1800 SHRASN BKN007 BKN014CB 01/01 Q1013 R28/190050 NOSIG
Conditions at: UKLI (IVANO-FRANKIVSK , UA) observed 1500 UTC 18 January 2019
Temperature: 1.0°C (34°F)
Dewpoint: 1.0°C (34°F) [RH = 100%]
Pressure (altimeter): 29.91 inches Hg (1013.0 mb)
Winds: from the NNW (340 degrees) at 9 MPH (8 knots; 4.1 m/s)
Visibility: 1.12 miles (1.80 km)
Ceiling: 700 feet AGL
Clouds: broken clouds at 700 feet AGL
broken clouds at 1400 feet AGL
Weather: SHRA SHSN  (rain showers, snow showers)

METAR text: UKLI 181445Z 33004MPS 280V360 1800 SHRASN BKN009 BKN014CB 01/01 Q1012 R28/190050 NOSIG
Conditions at: UKLI (IVANO-FRANKIVSK , UA) observed 1445 UTC 18 January 2019
Temperature: 1.0°C (34°F)
Dewpoint: 1.0°C (34°F) [RH = 100%]
Pressure (altimeter): 29.88 inches Hg (1012.0 mb)
Winds: from the NNW (330 degrees) at 9 MPH (8 knots; 4.1 m/s)
Visibility: 1.12 miles (1.80 km)
Ceiling: 900 feet AGL
Clouds: broken clouds at 900 feet AGL
broken clouds at 1400 feet AGL
Weather: SHRA SHSN  (rain showers, snow showers)

METAR text: UKLI 181430Z 33005MPS 280V360 1400 SHRASN BKN009 BKN014CB 01/01 Q1012 R28/190050 NOSIG
Conditions at: UKLI (IVANO-FRANKIVSK , UA) observed 1430 UTC 18 January 2019
Temperature: 1.0°C (34°F)
Dewpoint: 1.0°C (34°F) [RH = 100%]
Pressure (altimeter): 29.88 inches Hg (1012.0 mb)
Winds: from the NNW (330 degrees) at 12 MPH (10 knots; 5.1 m/s)
Visibility: 0.87 miles (1.40 km)
Ceiling: 900 feet AGL
Clouds: broken clouds at 900 feet AGL
broken clouds at 1400 feet AGL
Weather: SHRA SHSN  (rain showers, snow showers)

METAR text: UKLI 181427Z 33005MPS 280V360 1300 SHRASN BKN009 BKN014CB 01/01 Q1012 R28/190050 NOSIG
Conditions at: UKLI (IVANO-FRANKIVSK , UA) observed 1427 UTC 18 January 2019
Temperature: 1.0°C (34°F)
Dewpoint: 1.0°C (34°F) [RH = 100%]
Pressure (altimeter): 29.88 inches Hg (1012.0 mb)
Winds: from the NNW (330 degrees) at 12 MPH (10 knots; 5.1 m/s)
Visibility: 0.81 miles (1.30 km)
Ceiling: 900 feet AGL
Clouds: broken clouds at 900 feet AGL
broken clouds at 1400 feet AGL
Weather: SHRA SHSN  (rain showers, snow showers)

METAR text: UKLI 181425Z 33005MPS 280V360 1700 SHRASN BKN009 BKN014CB 01/01 Q1012 R28/190050 NOSIG
Conditions at: UKLI (IVANO-FRANKIVSK , UA) observed 1425 UTC 18 January 2019
Temperature: 1.0°C (34°F)
Dewpoint: 1.0°C (34°F) [RH = 100%]
Pressure (altimeter): 29.88 inches Hg (1012.0 mb)
Winds: from the NNW (330 degrees) at 12 MPH (10 knots; 5.1 m/s)
Visibility: 1.06 miles (1.71 km)
Ceiling: 900 feet AGL
Clouds: broken clouds at 900 feet AGL
broken clouds at 1400 feet AGL
Weather: SHRA SHSN  (rain showers, snow showers)

METAR text: UKLI 181417Z 34006MPS 290V360 2200 -SHRASN BKN009 BKN014CB 01/01 Q1012 R28/190050 NOSIG
Conditions at: UKLI (IVANO-FRANKIVSK , UA) observed 1417 UTC 18 January 2019
Temperature: 1.0°C (34°F)
Dewpoint: 1.0°C (34°F) [RH = 100%]
Pressure (altimeter): 29.88 inches Hg (1012.0 mb)
Winds: from the NNW (340 degrees) at 14 MPH (12 knots; 6.2 m/s)
Visibility: 1.37 miles (2.20 km)
Ceiling: 900 feet AGL
Clouds: broken clouds at 900 feet AGL
broken clouds at 1400 feet AGL
Weather: -SHRA -SHSN  (light rain showers, light snow showers)

METAR text: UKLI 181415Z 34006MPS 300V010 4200 -SHRASN BKN009 BKN014CB 01/01 Q1012 R28/190050 NOSIG
Conditions at: UKLI (IVANO-FRANKIVSK , UA) observed 1415 UTC 18 January 2019
Temperature: 1.0°C (34°F)
Dewpoint: 1.0°C (34°F) [RH = 100%]
Pressure (altimeter): 29.88 inches Hg (1012.0 mb)
Winds: from the NNW (340 degrees) at 14 MPH (12 knots; 6.2 m/s)
Visibility: 2.61 miles (4.20 km)
Ceiling: 900 feet AGL
Clouds: broken clouds at 900 feet AGL
broken clouds at 1400 feet AGL
Weather: -SHRA -SHSN  (light rain showers, light snow showers)

METAR text: UKLI 181400Z 34004G10MPS 290V050 9999 -SHRASN BKN014CB BKN026 03/01 Q1012 R28/190050 NOSIG
Conditions at: UKLI (IVANO-FRANKIVSK , UA) observed 1400 UTC 18 January 2019
Temperature: 3.0°C (37°F)
Dewpoint: 1.0°C (34°F) [RH = 87%]
Pressure (altimeter): 29.88 inches Hg (1012.0 mb)
Winds: from the NNW (340 degrees) at 9 MPH (8 knots; 4.1 m/s)
gusting to 22 MPH (19 knots; 9.8 m/s)
Visibility: 6 or more miles (10+ km)
Ceiling: 1400 feet AGL
Clouds: broken clouds at 1400 feet AGL
broken clouds at 2600 feet AGL
Weather: -SHRA -SHSN  (light rain showers, light snow showers)

METAR text: UKLI 181330Z 28003MPS 260V320 9999 -SHRA BKN014CB BKN026 04/02 Q1011 R28/190050 NOSIG
Conditions at: UKLI (IVANO-FRANKIVSK , UA) observed 1330 UTC 18 January 2019
Temperature: 4.0°C (39°F)
Dewpoint: 2.0°C (36°F) [RH = 87%]
Pressure (altimeter): 29.85 inches Hg (1011.0 mb)
Winds: from the W (280 degrees) at 7 MPH (6 knots; 3.1 m/s)
Visibility: 6 or more miles (10+ km)
Ceiling: 1400 feet AGL
Clouds: broken clouds at 1400 feet AGL
broken clouds at 2600 feet AGL
Weather: -SHRA  (light rain showers)

METAR text: UKLI 181300Z 28002MPS 9999 -SHRA BKN016CB BKN030 04/02 Q1010 R28/190050 NOSIG
Conditions at: UKLI (IVANO-FRANKIVSK , UA) observed 1300 UTC 18 January 2019
Temperature: 4.0°C (39°F)
Dewpoint: 2.0°C (36°F) [RH = 87%]
Pressure (altimeter): 29.82 inches Hg (1010.0 mb)
Winds: from the W (280 degrees) at 5 MPH (4 knots; 2.1 m/s)
Visibility: 6 or more miles (10+ km)
Ceiling: 1600 feet AGL
Clouds: broken clouds at 1600 feet AGL
broken clouds at 3000 feet AGL
Weather: -SHRA  (light rain showers)

METAR text: UKLI 181230Z 27004MPS 9999 -SHRA BKN019CB BKN030 04/02 Q1010 R28/190050 NOSIG
Conditions at: UKLI (IVANO-FRANKIVSK , UA) observed 1230 UTC 18 January 2019
Temperature: 4.0°C (39°F)
Dewpoint: 2.0°C (36°F) [RH = 87%]
Pressure (altimeter): 29.82 inches Hg (1010.0 mb)
Winds: from the W (270 degrees) at 9 MPH (8 knots; 4.1 m/s)
Visibility: 6 or more miles (10+ km)
Ceiling: 1900 feet AGL
Clouds: broken clouds at 1900 feet AGL
broken clouds at 3000 feet AGL
Weather: -SHRA  (light rain showers)

METAR text: UKLI 181200Z 27003MPS 250V310 9999 BKN021CB BKN033 04/02 Q1010 R28/190050 NOSIG
Conditions at: UKLI (IVANO-FRANKIVSK , UA) observed 1200 UTC 18 January 2019
Temperature: 4.0°C (39°F)
Dewpoint: 2.0°C (36°F) [RH = 87%]
Pressure (altimeter): 29.82 inches Hg (1010.0 mb)
Winds: from the W (270 degrees) at 7 MPH (6 knots; 3.1 m/s)
Visibility: 6 or more miles (10+ km)
Ceiling: 2100 feet AGL
Clouds: broken clouds at 2100 feet AGL
broken clouds at 3300 feet AGL
Weather: no significant weather observed at this time

METAR text: UKLI 181130Z 28002MPS 9999 BKN018CB BKN030 04/02 Q1010 R28/190050 NOSIG
Conditions at: UKLI (IVANO-FRANKIVSK , UA) observed 1130 UTC 18 January 2019
Temperature: 4.0°C (39°F)
Dewpoint: 2.0°C (36°F) [RH = 87%]
Pressure (altimeter): 29.82 inches Hg (1010.0 mb)
Winds: from the W (280 degrees) at 5 MPH (4 knots; 2.1 m/s)
Visibility: 6 or more miles (10+ km)
Ceiling: 1800 feet AGL
Clouds: broken clouds at 1800 feet AGL
broken clouds at 3000 feet AGL
Weather: no significant weather observed at this time

METAR text: UKLI 181100Z 26002MPS 9999 -SHRA BKN018CB BKN030 03/03 Q1010 R28/190050 NOSIG
Conditions at: UKLI (IVANO-FRANKIVSK , UA) observed 1100 UTC 18 January 2019
Temperature: 3.0°C (37°F)
Dewpoint: 3.0°C (37°F) [RH = 100%]
Pressure (altimeter): 29.82 inches Hg (1010.0 mb)
Winds: from the W (260 degrees) at 5 MPH (4 knots; 2.1 m/s)
Visibility: 6 or more miles (10+ km)
Ceiling: 1800 feet AGL
Clouds: broken clouds at 1800 feet AGL
broken clouds at 3000 feet AGL
Weather: -SHRA  (light rain showers)

METAR text: UKLI 181030Z 00000MPS 9999 -SHRA BKN020CB BKN033 03/03 Q1010 R28/190050 NOSIG
Conditions at: UKLI (IVANO-FRANKIVSK , UA) observed 1030 UTC 18 January 2019
Temperature: 3.0°C (37°F)
Dewpoint: 3.0°C (37°F) [RH = 100%]
Pressure (altimeter): 29.82 inches Hg (1010.0 mb)
Winds: calm
Visibility: 6 or more miles (10+ km)
Ceiling: 2000 feet AGL
Clouds: broken clouds at 2000 feet AGL
broken clouds at 3300 feet AGL
Weather: -SHRA  (light rain showers)

METAR text: UKLI 181000Z VRB02MPS 9999 -SHRA BKN022CB BKN033 03/03 Q1009 R28/190050 NOSIG
Conditions at: UKLI (IVANO-FRANKIVSK , UA) observed 1000 UTC 18 January 2019
Temperature: 3.0°C (37°F)
Dewpoint: 3.0°C (37°F) [RH = 100%]
Pressure (altimeter): 29.79 inches Hg (1009.0 mb)
Winds: variable direction winds at 5 MPH (4 knots; 2.1 m/s)
Visibility: 6 or more miles (10+ km)
Ceiling: 2200 feet AGL
Clouds: broken clouds at 2200 feet AGL
broken clouds at 3300 feet AGL
Weather: -SHRA  (light rain showers)

METAR text: UKLI 180930Z 34003MPS 9999 -SHRA BKN023CB BKN033 03/03 Q1009 R28/190050 NOSIG
Conditions at: UKLI (IVANO-FRANKIVSK , UA) observed 0930 UTC 18 January 2019
Temperature: 3.0°C (37°F)
Dewpoint: 3.0°C (37°F) [RH = 100%]
Pressure (altimeter): 29.79 inches Hg (1009.0 mb)
Winds: from the NNW (340 degrees) at 7 MPH (6 knots; 3.1 m/s)
Visibility: 6 or more miles (10+ km)
Ceiling: 2300 feet AGL
Clouds: broken clouds at 2300 feet AGL
broken clouds at 3300 feet AGL
Weather: -SHRA  (light rain showers)

METAR text: UKLI 180900Z 35004MPS 9999 -SHRA BKN023CB BKN033 03/02 Q1009 R28/190050 NOSIG
Conditions at: UKLI (IVANO-FRANKIVSK , UA) observed 0900 UTC 18 January 2019
Temperature: 3.0°C (37°F)
Dewpoint: 2.0°C (36°F) [RH = 93%]
Pressure (altimeter): 29.79 inches Hg (1009.0 mb)
Winds: from the N (350 degrees) at 9 MPH (8 knots; 4.1 m/s)
Visibility: 6 or more miles (10+ km)
Ceiling: 2300 feet AGL
Clouds: broken clouds at 2300 feet AGL
broken clouds at 3300 feet AGL
Weather: -SHRA  (light rain showers)

METAR text: UKLI 180830Z 35003MPS 320V020 9999 -SHRA SCT033CB BKN040 04/02 Q1009 R28/190050 NOSIG
Conditions at: UKLI (IVANO-FRANKIVSK , UA) observed 0830 UTC 18 January 2019
Temperature: 4.0°C (39°F)
Dewpoint: 2.0°C (36°F) [RH = 87%]
Pressure (altimeter): 29.79 inches Hg (1009.0 mb)
Winds: from the N (350 degrees) at 7 MPH (6 knots; 3.1 m/s)
Visibility: 6 or more miles (10+ km)
Ceiling: 4000 feet AGL
Clouds: scattered clouds at 3300 feet AGL
broken clouds at 4000 feet AGL
Weather: -SHRA  (light rain showers)

METAR text: UKLI 180800Z 00000MPS 9999 -SHRA SCT033CB BKN040 02/01 Q1008 R28/190050 NOSIG
Conditions at: UKLI (IVANO-FRANKIVSK , UA) observed 0800 UTC 18 January 2019
Temperature: 2.0°C (36°F)
Dewpoint: 1.0°C (34°F) [RH = 93%]
Pressure (altimeter): 29.76 inches Hg (1008.0 mb)
Winds: calm
Visibility: 6 or more miles (10+ km)
Ceiling: 4000 feet AGL
Clouds: scattered clouds at 3300 feet AGL
broken clouds at 4000 feet AGL
Weather: -SHRA  (light rain showers)

METAR text: UKLI 180730Z 00000MPS 9999 SCT040 BKN100 02/00 Q1008 R28/190050 NOSIG
Conditions at: UKLI (IVANO-FRANKIVSK , UA) observed 0730 UTC 18 January 2019
Temperature: 2.0°C (36°F)
Dewpoint: 0.0°C (32°F) [RH = 87%]
Pressure (altimeter): 29.76 inches Hg (1008.0 mb)
Winds: calm
Visibility: 6 or more miles (10+ km)
Ceiling: 10000 feet AGL
Clouds: scattered clouds at 4000 feet AGL
broken clouds at 10000 feet AGL
Weather: no significant weather observed at this time

METAR text: UKLI 180700Z 00000MPS 9999 SCT040 BKN100 03/00 Q1007 R28/190050 NOSIG
Conditions at: UKLI (IVANO-FRANKIVSK , UA) observed 0700 UTC 18 January 2019
Temperature: 3.0°C (37°F)
Dewpoint: 0.0°C (32°F) [RH = 81%]
Pressure (altimeter): 29.73 inches Hg (1007.0 mb)
Winds: calm
Visibility: 6 or more miles (10+ km)
Ceiling: 10000 feet AGL
Clouds: scattered clouds at 4000 feet AGL
broken clouds at 10000 feet AGL
Weather: no significant weather observed at this time

METAR text: UKLI 180630Z 31002MPS 9999 SCT040 BKN100 02/00 Q1007 R28/190050 NOSIG
Conditions at: UKLI (IVANO-FRANKIVSK , UA) observed 0630 UTC 18 January 2019
Temperature: 2.0°C (36°F)
Dewpoint: 0.0°C (32°F) [RH = 87%]
Pressure (altimeter): 29.73 inches Hg (1007.0 mb)
Winds: from the NW (310 degrees) at 5 MPH (4 knots; 2.1 m/s)
Visibility: 6 or more miles (10+ km)
Ceiling: 10000 feet AGL
Clouds: scattered clouds at 4000 feet AGL
broken clouds at 10000 feet AGL
Weather: no significant weather observed at this time

METAR text: UKLI 180600Z 00000MPS 9999 SCT040 BKN100 03/M00 Q1007 R28/190050 NOSIG
Conditions at: UKLI (IVANO-FRANKIVSK , UA) observed 0600 UTC 18 January 2019
Temperature: 3.0°C (37°F)
Dewpoint: 0.0°C (32°F) [RH = 81%]
Pressure (altimeter): 29.73 inches Hg (1007.0 mb)
Winds: calm
Visibility: 6 or more miles (10+ km)
Ceiling: 10000 feet AGL
Clouds: scattered clouds at 4000 feet AGL
broken clouds at 10000 feet AGL
Weather: no significant weather observed at this time

METAR text: UKLI 180530Z 17003MPS 9999 SCT040 BKN100 03/00 Q1007 R28/190050 NOSIG
Conditions at: UKLI (IVANO-FRANKIVSK , UA) observed 0530 UTC 18 January 2019
Temperature: 3.0°C (37°F)
Dewpoint: 0.0°C (32°F) [RH = 81%]
Pressure (altimeter): 29.73 inches Hg (1007.0 mb)
Winds: from the S (170 degrees) at 7 MPH (6 knots; 3.1 m/s)
Visibility: 6 or more miles (10+ km)
Ceiling: 10000 feet AGL
Clouds: scattered clouds at 4000 feet AGL
broken clouds at 10000 feet AGL
Weather: no significant weather observed at this time

METAR text: UKLI 180500Z 27001MPS 9999 SCT040 BKN100 04/M00 Q1007 R28/190050 NOSIG
Conditions at: UKLI (IVANO-FRANKIVSK , UA) observed 0500 UTC 18 January 2019
Temperature: 4.0°C (39°F)
Dewpoint: 0.0°C (32°F) [RH = 75%]
Pressure (altimeter): 29.73 inches Hg (1007.0 mb)
Winds: from the W (270 degrees) at 2 MPH (2 knots; 1.0 m/s)
Visibility: 6 or more miles (10+ km)
Ceiling: 10000 feet AGL
Clouds: scattered clouds at 4000 feet AGL
broken clouds at 10000 feet AGL
Weather: no significant weather observed at this time

METAR text: UKLI 180430Z VRB02MPS CAVOK 05/00 Q1006 R28/190050 NOSIG
Conditions at: UKLI (IVANO-FRANKIVSK , UA) observed 0430 UTC 18 January 2019
Temperature: 5.0°C (41°F)
Dewpoint: 0.0°C (32°F) [RH = 70%]
Pressure (altimeter): 29.70 inches Hg (1006.0 mb)
Winds: variable direction winds at 5 MPH (4 knots; 2.1 m/s)
Visibility: 6 or more miles (10+ km)
Ceiling: ceiling and visibility are OK
Clouds: unknown
Weather: no significant weather observed at this time

METAR text: UKLI 180400Z 27004MPS CAVOK 06/00 Q1006 R28/190050 NOSIG
Conditions at: UKLI (IVANO-FRANKIVSK , UA) observed 0400 UTC 18 January 2019
Temperature: 6.0°C (43°F)
Dewpoint: 0.0°C (32°F) [RH = 65%]
Pressure (altimeter): 29.70 inches Hg (1006.0 mb)
Winds: from the W (270 degrees) at 9 MPH (8 knots; 4.1 m/s)
Visibility: 6 or more miles (10+ km)
Ceiling: ceiling and visibility are OK
Clouds: unknown
Weather: no significant weather observed at this time

METAR text: UKLI 180330Z 00000MPS CAVOK 05/00 Q1006 NOSIG
Conditions at: UKLI (IVANO-FRANKIVSK , UA) observed 0330 UTC 18 January 2019
Temperature: 5.0°C (41°F)
Dewpoint: 0.0°C (32°F) [RH = 70%]
Pressure (altimeter): 29.70 inches Hg (1006.0 mb)
Winds: calm
Visibility: 6 or more miles (10+ km)
Ceiling: ceiling and visibility are OK
Clouds: unknown
Weather: no significant weather observed at this time

METAR text: UKLI 180300Z 00000MPS CAVOK 05/00 Q1006 NOSIG
Conditions at: UKLI (IVANO-FRANKIVSK , UA) observed 0300 UTC 18 January 2019
Temperature: 5.0°C (41°F)
Dewpoint: 0.0°C (32°F) [RH = 70%]
Pressure (altimeter): 29.70 inches Hg (1006.0 mb)
Winds: calm
Visibility: 6 or more miles (10+ km)
Ceiling: ceiling and visibility are OK
Clouds: unknown
Weather: no significant weather observed at this time

Forecast for: UKLI (IVANO-FRANKIVSK , UA)
Text: TAF UKLI 191104Z 1912/1921 VRB01MPS 9999 SCT030 TX02/1912Z TNM06/1921Z
Forecast period: 1200 to 2100 UTC 19 January 2019
Forecast type: FROM: standard forecast or significant change
Winds: variable direction winds at 2 MPH (2 knots; 1.0 m/s)
Visibility: 6 or more miles 10+ km)
Ceiling: at least 12,000 feet AGL
Clouds: scattered clouds at 3000 feet AGL
Weather: no significant weather forecast for this period
Text: TEMPO 1915/1921 12003MPS 2100 BR BKN010
Forecast period: 1500 to 2100 UTC 19 January 2019
Forecast type: TEMPORARY: The following changes expected for less than half the time period
Winds: from the ESE (120 degrees) at 7 MPH (6 knots; 3.1 m/s)
Visibility: 1.30 miles (2.09 km)
Ceiling: 1000 feet AGL
Clouds: broken clouds at 1000 feet AGL
Weather: BR  (mist)